Time;durP1;ratioP1;P1;durP2;ratioP2;P2;SDS_P1;SDS_P2;PMS_P1;PMS_P2;Temp;Humidity;BMP_temperature;BMP_pressure;BME280_temperature;BME280_humidity;BME280_pressure;Samples;Min_cycle;Max_cycle;Signal;HPM_P1;HPM_P2
2024/01/29 00:01:36;;;;;;;2.80;2.50;;;4.40;99.90;;;;;;5008830;28;20216;-73
2024/01/29 00:04:02;;;;;;;4.43;2.87;;;4.40;99.90;;;;;;5000177;28;20214;-73
2024/01/29 00:06:30;;;;;;;3.97;2.90;;;4.40;99.90;;;;;;4988584;28;20301;-73
2024/01/29 00:08:58;;;;;;;3.43;2.80;;;4.40;99.90;;;;;;4988803;28;20260;-73
2024/01/29 00:11:25;;;;;;;4.53;2.80;;;4.40;99.90;;;;;;4988862;28;20234;-73
2024/01/29 00:13:52;;;;;;;5.40;3.00;;;4.40;99.90;;;;;;4989148;28;20305;-73
2024/01/29 00:16:19;;;;;;;3.83;3.10;;;4.40;99.90;;;;;;5000128;28;20304;-72
2024/01/29 00:18:46;;;;;;;3.77;2.90;;;4.40;99.90;;;;;;5008452;28;20305;-72
2024/01/29 00:21:13;;;;;;;2.83;2.63;;;4.40;99.90;;;;;;5008551;28;20216;-72
2024/01/29 00:23:40;;;;;;;3.77;3.03;;;4.40;99.90;;;;;;5007786;28;20216;-72
2024/01/29 00:26:08;;;;;;;3.90;2.70;;;4.40;99.90;;;;;;5007798;28;20692;-72
2024/01/29 00:28:35;;;;;;;3.27;3.00;;;4.40;99.90;;;;;;5007900;28;20322;-72
2024/01/29 00:31:02;;;;;;;4.57;3.10;;;4.30;99.90;;;;;;5008253;28;20237;-72
2024/01/29 00:33:29;;;;;;;5.73;3.43;;;4.40;99.90;;;;;;5007698;28;20205;-73
2024/01/29 00:35:57;;;;;;;3.20;2.87;;;4.40;99.90;;;;;;5008367;28;20288;-73
2024/01/29 00:38:24;;;;;;;3.60;3.00;;;4.30;99.90;;;;;;5007689;28;20658;-73
2024/01/29 00:40:51;;;;;;;4.80;3.17;;;4.30;99.90;;;;;;5007843;28;20300;-73
2024/01/29 00:43:19;;;;;;;5.20;2.93;;;4.30;99.90;;;;;;5008089;28;20332;-73
2024/01/29 00:45:46;;;;;;;3.30;3.00;;;4.20;99.90;;;;;;5007781;28;20214;-72
2024/01/29 00:48:13;;;;;;;6.77;3.20;;;4.20;99.90;;;;;;5008216;28;20292;-72
2024/01/29 00:50:40;;;;;;;5.47;2.93;;;4.30;99.90;;;;;;5007383;28;20237;-72
2024/01/29 00:53:07;;;;;;;3.27;2.97;;;4.20;99.90;;;;;;5007311;28;20336;-72
2024/01/29 00:55:34;;;;;;;3.60;2.93;;;4.30;99.90;;;;;;5007511;28;20248;-73
2024/01/29 00:58:00;;;;;;;3.37;2.77;;;4.20;99.90;;;;;;5007747;28;20317;-73
2024/01/29 01:00:29;;;;;;;4.90;3.40;;;4.20;99.90;;;;;;5007372;28;20425;-73
2024/01/29 01:02:56;;;;;;;4.10;3.10;;;4.20;99.90;;;;;;5007975;28;20244;-72
2024/01/29 01:05:23;;;;;;;3.87;3.20;;;4.20;99.90;;;;;;5007848;28;20216;-73
2024/01/29 01:07:49;;;;;;;6.43;2.90;;;4.20;99.90;;;;;;5007622;28;20201;-72
2024/01/29 01:10:16;;;;;;;4.37;2.50;;;4.20;99.90;;;;;;5007522;28;20308;-73
2024/01/29 01:12:43;;;;;;;5.00;2.80;;;4.20;99.90;;;;;;5007839;28;20233;-73
2024/01/29 01:15:10;;;;;;;5.83;3.40;;;4.20;99.90;;;;;;5007158;28;20328;-73
2024/01/29 01:17:39;;;;;;;5.50;2.93;;;4.20;99.90;;;;;;5007661;28;20201;-73
2024/01/29 01:20:07;;;;;;;3.90;2.90;;;4.20;99.90;;;;;;5007562;28;20294;-74
2024/01/29 01:22:33;;;;;;;4.00;3.00;;;4.10;99.90;;;;;;5006803;28;20225;-74
2024/01/29 01:25:00;;;;;;;4.63;2.80;;;4.20;99.90;;;;;;5007091;28;20727;-74
2024/01/29 01:27:27;;;;;;;3.50;3.20;;;4.10;99.90;;;;;;5007529;28;20237;-75
2024/01/29 01:29:54;;;;;;;4.93;3.00;;;4.10;99.90;;;;;;5007333;28;20721;-74
2024/01/29 01:32:21;;;;;;;3.47;3.13;;;4.10;99.90;;;;;;5007105;28;20353;-73
2024/01/29 01:34:50;;;;;;;3.33;3.00;;;4.00;99.90;;;;;;5007106;28;21045;-73
2024/01/29 01:37:17;;;;;;;3.57;3.20;;;4.10;99.90;;;;;;5006967;28;20380;-74
2024/01/29 01:39:44;;;;;;;5.37;3.40;;;4.00;99.90;;;;;;5006856;28;20213;-73
2024/01/29 01:42:11;;;;;;;4.23;3.10;;;4.00;99.90;;;;;;5007276;28;20308;-73
2024/01/29 01:44:38;;;;;;;3.07;2.80;;;4.00;99.90;;;;;;5007294;28;20579;-74
2024/01/29 01:47:05;;;;;;;8.43;3.03;;;4.00;99.90;;;;;;5007293;28;20205;-74
2024/01/29 01:49:32;;;;;;;3.90;2.90;;;3.90;99.90;;;;;;5007231;28;20259;-73
2024/01/29 01:52:01;;;;;;;3.63;2.83;;;4.00;99.90;;;;;;5006425;28;20236;-74
2024/01/29 01:54:28;;;;;;;4.67;2.87;;;4.00;99.90;;;;;;5007127;28;20240;-74
2024/01/29 01:56:58;;;;;;;3.47;2.80;;;3.90;99.90;;;;;;5006392;28;20296;-72
2024/01/29 01:59:26;;;;;;;2.97;2.77;;;3.90;99.90;;;;;;5007263;28;20283;-72
2024/01/29 02:01:53;;;;;;;4.20;3.10;;;4.00;99.90;;;;;;5008497;28;20292;-72
2024/01/29 02:04:20;;;;;;;4.00;2.97;;;3.90;99.90;;;;;;5010901;28;20646;-72
2024/01/29 02:06:47;;;;;;;3.60;2.87;;;4.00;99.90;;;;;;5011024;28;20213;-72
2024/01/29 02:09:16;;;;;;;4.53;2.83;;;4.00;99.90;;;;;;5010941;28;20575;-73
2024/01/29 02:11:42;;;;;;;4.40;2.87;;;4.00;99.90;;;;;;5010586;28;20679;-72
2024/01/29 02:14:09;;;;;;;4.03;2.93;;;4.00;99.90;;;;;;5010658;28;20678;-72
2024/01/29 02:16:36;;;;;;;6.07;3.00;;;4.00;99.90;;;;;;5010839;28;20283;-71
2024/01/29 02:19:05;;;;;;;3.30;2.83;;;4.00;99.90;;;;;;5010786;28;20311;-72
2024/01/29 02:21:32;;;;;;;4.77;3.33;;;4.00;99.90;;;;;;5009912;28;20201;-71
2024/01/29 02:24:01;;;;;;;3.87;2.90;;;4.00;99.90;;;;;;5010383;28;20213;-71
2024/01/29 02:26:27;;;;;;;4.83;3.20;;;4.00;99.90;;;;;;5009943;28;20686;-72
2024/01/29 02:28:54;;;;;;;4.33;3.30;;;4.00;99.90;;;;;;5008365;28;20211;-72
2024/01/29 02:31:21;;;;;;;3.90;2.83;;;4.00;99.90;;;;;;5009749;28;20313;-71
2024/01/29 02:33:48;;;;;;;6.17;3.23;;;4.00;99.90;;;;;;5009770;28;20237;-72
2024/01/29 02:36:16;;;;;;;4.63;3.20;;;4.00;99.90;;;;;;5009910;28;20340;-71
2024/01/29 02:38:43;;;;;;;7.20;3.43;;;4.00;99.90;;;;;;5009781;28;20236;-71
2024/01/29 02:41:11;;;;;;;4.87;3.30;;;4.00;99.90;;;;;;5010320;28;20217;-72
2024/01/29 02:43:38;;;;;;;6.20;3.47;;;4.00;99.90;;;;;;5010220;28;20219;-72
2024/01/29 02:46:05;;;;;;;7.33;3.30;;;4.00;99.90;;;;;;5010132;28;20292;-72
2024/01/29 02:48:32;;;;;;;4.27;3.30;;;4.10;99.90;;;;;;5010070;28;20232;-71
2024/01/29 02:50:58;;;;;;;3.97;3.23;;;4.10;99.90;;;;;;5009704;28;20209;-71
2024/01/29 02:53:25;;;;;;;5.83;3.20;;;4.10;99.90;;;;;;5009193;28;20275;-71
2024/01/29 02:55:52;;;;;;;5.13;3.13;;;4.10;99.90;;;;;;5009908;28;20283;-71
2024/01/29 02:58:20;;;;;;;6.47;3.43;;;4.00;99.90;;;;;;5009847;28;20788;-71
2024/01/29 03:00:47;;;;;;;3.87;3.10;;;4.00;99.90;;;;;;5009881;28;20368;-71
2024/01/29 03:03:14;;;;;;;6.17;3.43;;;4.00;99.90;;;;;;5009845;28;20652;-71
2024/01/29 03:05:41;;;;;;;5.17;3.40;;;4.00;99.90;;;;;;5009885;28;20296;-71
2024/01/29 03:08:08;;;;;;;4.43;3.33;;;4.00;99.90;;;;;;5009824;28;20245;-71
2024/01/29 03:10:35;;;;;;;5.10;3.20;;;4.10;99.90;;;;;;5009591;28;20300;-71
2024/01/29 03:13:02;;;;;;;5.97;3.23;;;4.00;99.90;;;;;;5008308;28;20320;-72
2024/01/29 03:15:30;;;;;;;5.27;3.10;;;4.00;99.90;;;;;;5009980;28;21094;-72
2024/01/29 03:17:57;;;;;;;6.87;3.70;;;4.10;99.90;;;;;;5009812;28;20296;-72
2024/01/29 03:20:24;;;;;;;6.20;3.37;;;4.00;99.90;;;;;;5009672;28;20209;-73
2024/01/29 03:22:50;;;;;;;4.60;3.17;;;4.10;99.90;;;;;;5009653;28;20593;-73
2024/01/29 03:25:19;;;;;;;4.27;2.87;;;4.10;99.90;;;;;;5009171;28;20315;-73
2024/01/29 03:27:46;;;;;;;3.40;3.07;;;4.00;99.90;;;;;;5007746;28;20213;-73
2024/01/29 03:30:13;;;;;;;5.73;3.23;;;4.00;99.90;;;;;;5005771;28;20206;-73
2024/01/29 03:32:41;;;;;;;6.10;3.60;;;4.00;99.90;;;;;;5005036;28;20256;-73
2024/01/29 03:35:10;;;;;;;3.63;3.20;;;4.00;99.90;;;;;;5005475;28;20372;-73
2024/01/29 03:37:37;;;;;;;6.83;3.60;;;3.90;99.90;;;;;;5004805;28;20215;-73
2024/01/29 03:40:05;;;;;;;5.00;3.70;;;3.90;99.90;;;;;;5005005;28;20294;-73
2024/01/29 03:42:32;;;;;;;5.80;3.63;;;3.90;99.90;;;;;;5004938;28;20634;-72
2024/01/29 03:44:59;;;;;;;4.40;3.30;;;3.80;99.90;;;;;;5005268;28;20212;-72
2024/01/29 03:47:25;;;;;;;6.83;3.50;;;3.80;99.90;;;;;;5004476;28;20640;-73
2024/01/29 03:49:54;;;;;;;6.03;3.60;;;3.80;99.90;;;;;;5009047;28;20328;-75
2024/01/29 03:52:21;;;;;;;4.93;3.50;;;3.70;99.90;;;;;;5008233;28;20304;-73
2024/01/29 03:54:47;;;;;;;4.87;3.37;;;3.80;99.90;;;;;;5007600;28;20300;-73
2024/01/29 03:57:14;;;;;;;5.13;3.60;;;3.70;99.90;;;;;;4993697;28;20213;-73
2024/01/29 03:59:41;;;;;;;4.63;3.60;;;3.70;99.90;;;;;;4988084;28;20213;-73
2024/01/29 04:02:08;;;;;;;5.47;3.97;;;3.70;99.90;;;;;;4988181;28;20293;-73
2024/01/29 04:04:35;;;;;;;3.87;3.50;;;3.70;99.90;;;;;;4987868;28;20583;-73
2024/01/29 04:07:03;;;;;;;4.97;3.43;;;3.70;99.90;;;;;;4988138;28;20293;-74
2024/01/29 04:09:31;;;;;;;5.83;4.10;;;3.70;99.90;;;;;;4988173;28;20238;-73
2024/01/29 04:11:58;;;;;;;7.77;3.87;;;3.70;99.90;;;;;;4988844;28;20318;-73
2024/01/29 04:14:25;;;;;;;6.23;3.10;;;3.60;99.90;;;;;;4988754;28;20206;-73
2024/01/29 04:16:52;;;;;;;5.20;3.83;;;3.70;99.90;;;;;;4988707;28;20233;-73
2024/01/29 04:19:19;;;;;;;6.63;3.90;;;3.60;99.90;;;;;;4988609;28;20217;-73
2024/01/29 04:21:46;;;;;;;5.57;3.63;;;3.70;99.90;;;;;;4988311;28;20304;-73
2024/01/29 04:24:15;;;;;;;5.10;3.67;;;3.70;99.90;;;;;;4991497;28;20312;-73
2024/01/29 04:26:42;;;;;;;4.67;3.30;;;3.60;99.90;;;;;;5007997;28;20205;-73
2024/01/29 04:29:09;;;;;;;4.67;3.23;;;3.60;99.90;;;;;;5008120;28;20324;-73
2024/01/29 04:31:37;;;;;;;4.50;3.43;;;3.60;99.90;;;;;;5008105;28;20319;-73
2024/01/29 04:34:04;;;;;;;8.00;3.87;;;3.60;99.90;;;;;;5007903;28;20245;-73
2024/01/29 04:36:30;;;;;;;7.50;3.50;;;3.60;99.90;;;;;;5007842;28;20206;-72
2024/01/29 04:38:58;;;;;;;4.77;3.30;;;3.70;99.90;;;;;;5008283;28;20209;-73
2024/01/29 04:41:26;;;;;;;5.00;3.47;;;3.60;99.90;;;;;;5008063;28;20295;-73
2024/01/29 04:43:53;;;;;;;4.77;3.40;;;3.60;99.90;;;;;;5007640;28;20224;-73
2024/01/29 04:46:20;;;;;;;5.70;3.73;;;3.60;99.90;;;;;;5007309;28;20240;-72
2024/01/29 04:48:47;;;;;;;5.03;3.20;;;3.60;99.90;;;;;;5007965;28;20205;-73
2024/01/29 04:51:14;;;;;;;6.80;3.53;;;3.60;99.90;;;;;;5007882;28;20205;-73
2024/01/29 04:53:41;;;;;;;5.83;3.30;;;3.60;99.90;;;;;;5007163;28;20261;-73
2024/01/29 04:56:08;;;;;;;8.57;3.77;;;3.60;99.90;;;;;;4988900;28;20582;-73
2024/01/29 04:58:36;;;;;;;4.53;3.43;;;3.60;99.90;;;;;;4987834;28;20669;-73
2024/01/29 05:01:04;;;;;;;4.30;3.70;;;3.50;99.90;;;;;;4988210;28;20667;-73
2024/01/29 05:03:32;;;;;;;7.50;3.90;;;3.50;99.90;;;;;;4987743;28;20313;-73
2024/01/29 05:05:59;;;;;;;3.63;3.30;;;3.50;99.90;;;;;;4988576;28;20649;-72
2024/01/29 05:08:26;;;;;;;3.93;3.50;;;3.50;99.90;;;;;;4987652;28;20257;-73
2024/01/29 05:10:53;;;;;;;6.90;3.50;;;3.40;99.90;;;;;;4987725;28;20206;-73
2024/01/29 05:13:19;;;;;;;4.47;3.27;;;3.40;99.90;;;;;;4987982;28;20727;-73
2024/01/29 05:15:48;;;;;;;4.10;3.27;;;3.50;99.90;;;;;;4988016;28;20300;-73
2024/01/29 05:18:15;;;;;;;4.57;3.10;;;3.50;99.90;;;;;;4987921;28;20404;-73
2024/01/29 05:20:42;;;;;;;4.40;3.40;;;3.50;99.90;;;;;;4987946;28;20206;-73
2024/01/29 05:23:09;;;;;;;4.83;3.40;;;3.50;99.90;;;;;;4987487;28;20653;-73
2024/01/29 05:25:36;;;;;;;6.17;3.60;;;3.50;99.90;;;;;;5002558;28;20247;-73
2024/01/29 05:28:03;;;;;;;4.50;3.50;;;3.50;99.90;;;;;;5007697;28;20300;-72
2024/01/29 05:30:30;;;;;;;5.73;3.30;;;3.50;99.90;;;;;;5007017;28;20231;-73
2024/01/29 05:32:58;;;;;;;5.07;3.30;;;3.40;99.90;;;;;;5007682;28;20237;-72
2024/01/29 05:35:25;;;;;;;4.47;3.73;;;3.40;99.90;;;;;;5007149;28;20292;-72
2024/01/29 05:37:52;;;;;;;5.63;3.47;;;3.40;99.90;;;;;;5006741;28;20292;-72
2024/01/29 05:40:19;;;;;;;5.43;3.60;;;3.40;99.90;;;;;;5007188;28;20201;-73
2024/01/29 05:42:52;;;;;;;11.40;4.17;;;3.40;99.90;;;;;;5007218;28;20296;-73
2024/01/29 05:45:19;;;;;;;4.13;3.50;;;3.30;99.90;;;;;;5007319;28;20274;-73
2024/01/29 05:47:46;;;;;;;5.27;3.30;;;3.30;99.90;;;;;;5004103;28;20244;-73
2024/01/29 05:50:14;;;;;;;6.17;3.63;;;3.30;99.90;;;;;;5006469;28;20293;-73
2024/01/29 05:52:41;;;;;;;5.40;3.80;;;3.30;99.90;;;;;;5006815;28;20237;-72
2024/01/29 05:55:09;;;;;;;8.13;3.83;;;3.20;99.90;;;;;;5007327;28;20292;-73
2024/01/29 05:57:35;;;;;;;6.47;4.03;;;3.20;99.90;;;;;;5007423;28;20634;-73
2024/01/29 06:00:06;;;;;;;6.67;4.03;;;3.20;99.90;;;;;;5006956;28;20366;-73
2024/01/29 06:02:33;;;;;;;5.17;3.50;;;3.20;99.90;;;;;;5007091;28;20201;-73
2024/01/29 06:05:00;;;;;;;6.20;3.53;;;3.20;99.90;;;;;;5007539;28;20213;-73
2024/01/29 06:07:29;;;;;;;6.37;3.37;;;3.10;99.90;;;;;;5007175;28;20205;-72
2024/01/29 06:09:56;;;;;;;4.80;3.93;;;3.10;99.90;;;;;;5007274;28;20283;-73
2024/01/29 06:12:23;;;;;;;5.20;4.00;;;3.10;99.90;;;;;;5007128;28;20285;-72
2024/01/29 06:14:49;;;;;;;6.87;3.77;;;3.10;99.90;;;;;;5007143;28;20300;-72
2024/01/29 06:17:16;;;;;;;5.37;3.93;;;3.10;99.90;;;;;;5007035;28;20304;-73
2024/01/29 06:19:43;;;;;;;7.20;3.60;;;3.10;99.90;;;;;;5007459;28;20293;-73
2024/01/29 06:22:10;;;;;;;5.03;3.90;;;3.10;99.90;;;;;;5006798;28;20209;-73
2024/01/29 06:24:38;;;;;;;3.70;3.17;;;3.10;99.90;;;;;;5007094;28;20299;-73
2024/01/29 06:27:05;;;;;;;7.23;3.73;;;3.10;99.90;;;;;;5006799;28;20303;-73
2024/01/29 06:29:35;;;;;;;6.30;3.90;;;3.10;99.90;;;;;;5006677;28;20297;-73
2024/01/29 06:32:02;;;;;;;4.23;3.43;;;3.10;99.90;;;;;;5006923;28;20332;-73
2024/01/29 06:34:29;;;;;;;7.80;3.93;;;3.10;99.90;;;;;;5006724;28;20776;-73
2024/01/29 06:36:55;;;;;;;4.27;3.20;;;3.10;99.90;;;;;;5006424;28;20634;-73
2024/01/29 06:39:24;;;;;;;4.43;3.47;;;3.20;99.90;;;;;;5006379;28;20669;-73
2024/01/29 06:41:52;;;;;;;5.13;3.87;;;3.20;99.90;;;;;;5006705;28;20202;-73
2024/01/29 06:44:19;;;;;;;5.03;3.50;;;3.20;99.90;;;;;;5006808;28;20329;-73
2024/01/29 06:46:46;;;;;;;6.73;3.63;;;3.20;99.90;;;;;;5006400;28;20300;-73
2024/01/29 06:49:26;;;;;;;3.97;3.40;;;3.20;99.90;;;;;;5009728;28;20249;-73
2024/01/29 06:51:53;;;;;;;5.33;3.73;;;3.10;99.90;;;;;;5010231;28;20264;-73
2024/01/29 06:54:19;;;;;;;5.13;3.30;;;3.20;99.90;;;;;;5010041;28;20233;-73
2024/01/29 06:56:47;;;;;;;4.67;3.47;;;3.20;99.90;;;;;;5010309;28;20260;-72
2024/01/29 06:59:15;;;;;;;5.67;3.50;;;3.20;99.90;;;;;;5010049;28;20606;-73
2024/01/29 07:01:42;;;;;;;4.47;3.73;;;3.10;99.90;;;;;;5009687;28;20551;-73
2024/01/29 07:04:09;;;;;;;5.77;3.57;;;3.10;99.90;;;;;;5010021;28;20300;-72
2024/01/29 07:06:36;;;;;;;5.33;3.60;;;3.20;99.90;;;;;;5009625;28;20205;-73
2024/01/29 07:09:03;;;;;;;3.50;3.20;;;3.20;99.90;;;;;;5010081;28;20300;-73
2024/01/29 07:11:29;;;;;;;4.97;3.40;;;3.20;99.90;;;;;;5009554;28;20825;-73
2024/01/29 07:13:56;;;;;;;7.00;3.63;;;3.10;99.90;;;;;;5009479;28;20240;-72
2024/01/29 07:16:25;;;;;;;6.03;3.57;;;3.20;99.90;;;;;;5009697;28;20220;-72
2024/01/29 07:18:52;;;;;;;3.83;3.40;;;3.20;99.90;;;;;;5009571;28;20201;-72
2024/01/29 07:21:18;;;;;;;4.70;3.50;;;3.20;99.90;;;;;;5009260;28;20209;-73
2024/01/29 07:23:45;;;;;;;6.27;4.03;;;3.20;99.90;;;;;;5009184;28;20245;-72
2024/01/29 07:26:12;;;;;;;5.70;3.57;;;3.20;99.90;;;;;;4990002;28;20662;-73
2024/01/29 07:28:39;;;;;;;4.40;3.17;;;3.30;99.90;;;;;;4989712;28;20265;-72
2024/01/29 07:31:06;;;;;;;7.43;3.17;;;3.30;99.90;;;;;;4989923;28;20321;-73
2024/01/29 07:33:34;;;;;;;5.63;3.10;;;3.30;99.90;;;;;;5001984;28;20337;-73
2024/01/29 07:36:02;;;;;;;4.57;3.20;;;3.40;99.90;;;;;;5009192;28;20300;-73
2024/01/29 07:38:29;;;;;;;4.63;3.10;;;3.30;99.90;;;;;;5009126;28;20301;-73
2024/01/29 07:40:56;;;;;;;7.13;3.63;;;3.40;99.90;;;;;;5008977;28;20297;-72
2024/01/29 07:43:23;;;;;;;4.40;3.60;;;3.40;99.90;;;;;;5008928;28;20341;-73
2024/01/29 07:45:49;;;;;;;7.07;3.77;;;3.40;99.90;;;;;;5008927;28;20256;-73
2024/01/29 07:48:16;;;;;;;5.53;3.70;;;3.40;99.90;;;;;;5008835;28;20300;-73
2024/01/29 07:50:45;;;;;;;3.97;3.57;;;3.40;99.90;;;;;;5008873;28;20728;-73
2024/01/29 07:53:11;;;;;;;5.90;3.93;;;3.50;99.90;;;;;;5008436;28;20350;-73
2024/01/29 07:55:39;;;;;;;5.73;3.57;;;3.50;99.90;;;;;;5008775;28;20293;-73
2024/01/29 07:58:05;;;;;;;4.87;3.17;;;3.60;99.90;;;;;;5009129;28;20202;-73
2024/01/29 08:00:32;;;;;;;3.47;3.13;;;3.60;99.90;;;;;;5008171;28;20656;-73
2024/01/29 08:03:02;;;;;;;3.70;3.00;;;3.60;99.90;;;;;;5008946;28;20589;-73
2024/01/29 08:05:29;;;;;;;3.90;3.57;;;3.70;99.90;;;;;;5008765;28;20202;-73
2024/01/29 08:07:58;;;;;;;4.13;3.20;;;3.80;99.90;;;;;;5008539;28;20691;-73
2024/01/29 08:10:25;;;;;;;3.90;3.40;;;3.80;99.90;;;;;;5008610;28;20297;-74
2024/01/29 08:12:51;;;;;;;4.87;3.00;;;3.90;99.90;;;;;;5008788;28;20297;-73
2024/01/29 08:15:18;;;;;;;4.60;3.20;;;4.00;99.90;;;;;;4995405;28;20248;-72
2024/01/29 08:17:45;;;;;;;5.30;3.23;;;4.00;99.90;;;;;;4989088;28;20214;-73
2024/01/29 08:20:12;;;;;;;4.27;3.43;;;4.10;99.90;;;;;;4989241;28;20305;-73
2024/01/29 08:22:39;;;;;;;6.00;3.37;;;4.20;99.90;;;;;;4988489;28;20209;-73
2024/01/29 08:25:08;;;;;;;3.93;2.83;;;4.20;99.90;;;;;;4999128;28;20814;-73
2024/01/29 08:27:35;;;;;;;4.87;3.20;;;4.30;99.90;;;;;;5008278;28;20237;-73
2024/01/29 08:30:03;;;;;;;4.43;3.20;;;4.40;99.90;;;;;;5008034;28;20209;-73
2024/01/29 08:32:30;;;;;;;3.37;3.00;;;4.50;99.90;;;;;;5008333;28;20213;-73
2024/01/29 08:34:57;;;;;;;5.80;3.20;;;4.60;99.90;;;;;;5008635;28;20324;-73
2024/01/29 08:37:23;;;;;;;3.13;2.83;;;4.70;99.90;;;;;;5007925;28;20658;-73
2024/01/29 08:39:50;;;;;;;4.33;2.80;;;4.80;99.90;;;;;;5008506;28;20304;-73
2024/01/29 08:42:19;;;;;;;3.67;2.80;;;4.90;99.90;;;;;;5008191;28;20221;-73
2024/01/29 08:44:46;;;;;;;3.87;2.50;;;5.00;99.90;;;;;;5008517;28;20601;-73
2024/01/29 08:47:13;;;;;;;5.60;3.30;;;5.00;99.90;;;;;;5008353;28;20209;-73
2024/01/29 08:49:40;;;;;;;3.73;2.70;;;5.10;99.90;;;;;;5008363;28;20212;-73
2024/01/29 08:52:07;;;;;;;5.63;3.43;;;5.10;99.90;;;;;;5008162;28;20605;-73
2024/01/29 08:54:34;;;;;;;3.17;2.80;;;5.20;99.90;;;;;;5008000;28;20237;-73
2024/01/29 08:57:02;;;;;;;3.43;3.03;;;5.30;99.90;;;;;;5008212;28;20260;-73
2024/01/29 08:59:31;;;;;;;2.87;2.67;;;5.30;99.90;;;;;;5007932;28;20244;-73
2024/01/29 09:01:58;;;;;;;4.23;2.90;;;5.40;99.90;;;;;;5008402;28;20213;-73
2024/01/29 09:04:25;;;;;;;3.03;2.60;;;5.40;99.90;;;;;;5008448;28;20292;-73
2024/01/29 09:06:53;;;;;;;3.30;2.73;;;5.40;99.90;;;;;;5007361;28;20209;-73
2024/01/29 09:09:19;;;;;;;3.23;2.43;;;5.50;99.90;;;;;;5007930;28;20297;-73
2024/01/29 09:11:46;;;;;;;3.83;2.70;;;5.60;99.90;;;;;;4992753;28;20214;-73
2024/01/29 09:14:14;;;;;;;3.13;2.63;;;5.60;99.90;;;;;;4988178;28;20244;-73
2024/01/29 09:16:42;;;;;;;4.70;3.17;;;5.70;99.90;;;;;;4987991;28;20217;-73
2024/01/29 09:19:09;;;;;;;3.33;2.50;;;5.70;99.90;;;;;;5002293;28;20288;-73
2024/01/29 09:21:36;;;;;;;2.43;2.23;;;5.80;99.90;;;;;;5007266;28;20220;-73
2024/01/29 09:24:04;;;;;;;2.83;2.13;;;5.90;99.90;;;;;;5007992;28;20248;-74
2024/01/29 09:26:31;;;;;;;3.20;2.60;;;5.90;99.90;;;;;;5007238;28;20293;-74
2024/01/29 09:28:58;;;;;;;3.07;2.47;;;5.90;99.90;;;;;;5007844;28;20216;-73
2024/01/29 09:31:25;;;;;;;2.80;2.53;;;6.00;99.90;;;;;;5007594;28;20229;-73
2024/01/29 09:33:54;;;;;;;2.97;2.53;;;6.00;99.90;;;;;;5007518;28;20233;-73
2024/01/29 09:36:21;;;;;;;2.70;2.50;;;6.10;99.90;;;;;;5007405;28;20217;-73
2024/01/29 09:38:48;;;;;;;2.57;2.30;;;6.20;99.90;;;;;;5007258;28;20296;-73
2024/01/29 09:41:15;;;;;;;3.23;2.70;;;6.30;99.90;;;;;;5007355;28;20337;-73
2024/01/29 09:43:46;;;;;;;4.07;2.57;;;6.40;99.90;;;;;;5007361;28;20233;-73
2024/01/29 09:46:14;;;;;;;2.77;2.53;;;6.40;99.90;;;;;;5007036;28;20204;-73
2024/01/29 09:48:42;;;;;;;2.87;2.57;;;6.50;99.90;;;;;;5006976;28;20699;-73
2024/01/29 09:51:16;;;;;;;4.10;2.60;;;6.60;99.90;;;;;;5007148;28;20237;-74
2024/01/29 09:53:44;;;;;;;3.27;2.63;;;6.70;99.90;;;;;;5005954;28;20292;-73
2024/01/29 09:56:11;;;;;;;4.20;2.60;;;6.80;99.90;;;;;;5006876;28;20262;-73
2024/01/29 09:58:38;;;;;;;3.87;3.03;;;6.90;99.90;;;;;;5006482;28;20759;-73
2024/01/29 10:01:08;;;;;;;2.50;2.33;;;6.90;99.90;;;;;;5007090;28;20270;-74
2024/01/29 10:03:39;;;;;;;3.17;2.63;;;7.00;99.90;;;;;;5007052;28;20708;-74
2024/01/29 10:06:07;;;;;;;3.30;2.90;;;7.00;99.90;;;;;;5006862;28;20296;-73
2024/01/29 10:08:36;;;;;;;4.53;2.90;;;7.10;99.90;;;;;;5006507;28;20260;-73
2024/01/29 10:11:04;;;;;;;2.77;2.57;;;7.10;99.90;;;;;;5007024;28;20214;-73
2024/01/29 10:13:31;;;;;;;3.77;2.77;;;7.20;99.90;;;;;;5006517;28;20674;-73
2024/01/29 10:15:57;;;;;;;3.13;2.43;;;7.30;99.90;;;;;;5007131;28;20288;-73
2024/01/29 10:18:24;;;;;;;2.80;2.53;;;7.30;99.90;;;;;;5006647;28;20288;-74
2024/01/29 10:21:00;;;;;;;2.73;2.53;;;7.40;99.90;;;;;;5006790;28;20326;-74
2024/01/29 10:23:27;;;;;;;3.47;2.90;;;7.40;99.90;;;;;;5008850;28;20201;-73
2024/01/29 10:25:57;;;;;;;5.90;2.83;;;7.50;99.90;;;;;;5010309;28;20380;-74
2024/01/29 10:28:26;;;;;;;3.80;2.57;;;7.50;99.90;;;;;;5010268;28;20213;-73
2024/01/29 10:30:53;;;;;;;3.20;2.73;;;7.60;99.90;;;;;;5010111;28;20233;-73
2024/01/29 10:33:21;;;;;;;3.93;2.60;;;7.60;99.90;;;;;;5010255;28;20221;-73
2024/01/29 10:35:48;;;;;;;3.73;2.97;;;7.50;99.90;;;;;;5010347;28;20269;-73
2024/01/29 10:38:19;;;;;;;2.93;2.50;;;7.60;99.90;;;;;;5010165;28;20210;-73
2024/01/29 10:40:46;;;;;;;3.87;2.50;;;7.60;99.90;;;;;;5009812;28;20293;-74
2024/01/29 10:43:19;;;;;;;5.00;2.60;;;7.70;99.90;;;;;;5009972;28;20300;-73
2024/01/29 10:45:49;;;;;;;2.73;2.37;;;7.80;99.90;;;;;;5009914;28;20256;-74
2024/01/29 10:48:20;;;;;;;3.00;2.40;;;7.80;99.90;;;;;;5010210;28;20582;-73
2024/01/29 10:50:48;;;;;;;4.07;2.90;;;7.90;99.90;;;;;;5010029;28;20225;-74
2024/01/29 10:53:17;;;;;;;3.30;2.67;;;8.00;99.90;;;;;;5009421;28;20859;-73
2024/01/29 10:55:44;;;;;;;3.57;2.30;;;8.10;99.90;;;;;;5009766;28;20253;-74
2024/01/29 10:58:15;;;;;;;3.10;2.80;;;8.20;99.90;;;;;;5009897;28;20304;-74
2024/01/29 11:00:44;;;;;;;3.17;2.67;;;8.40;99.90;;;;;;5009619;28;20736;-73
2024/01/29 11:03:13;;;;;;;2.83;2.50;;;8.60;99.90;;;;;;5009813;28;20229;-74
2024/01/29 11:05:43;;;;;;;3.00;2.70;;;8.70;99.90;;;;;;5010031;28;20244;-73
2024/01/29 11:08:17;;;;;;;2.90;2.60;;;8.80;99.90;;;;;;5009614;28;20220;-74
2024/01/29 11:10:44;;;;;;;2.73;2.30;;;8.90;99.90;;;;;;5009327;28;20663;-74
2024/01/29 11:13:13;;;;;;;2.40;2.20;;;9.00;99.90;;;;;;5009493;28;20300;-74
2024/01/29 11:15:42;;;;;;;3.17;2.30;;;9.10;99.90;;;;;;5009426;28;20320;-74
2024/01/29 11:18:10;;;;;;;3.13;2.27;;;9.10;99.90;;;;;;5009235;28;20205;-73
2024/01/29 11:20:38;;;;;;;2.63;2.17;;;9.20;99.90;;;;;;5009305;28;20296;-74
2024/01/29 11:23:05;;;;;;;3.20;2.50;;;9.30;99.90;;;;;;5009339;28;20209;-73
2024/01/29 11:25:32;;;;;;;2.87;2.00;;;9.40;99.90;;;;;;5009339;28;20224;-74
2024/01/29 11:28:02;;;;;;;2.30;2.10;;;9.50;99.90;;;;;;5009250;28;20683;-73
2024/01/29 11:30:29;;;;;;;3.50;2.33;;;9.50;99.90;;;;;;5009160;28;20900;-74
2024/01/29 11:33:13;;;;;;;2.50;2.27;;;9.60;99.90;;;;;;5009493;28;20237;-74
2024/01/29 11:35:41;;;;;;;3.07;2.87;;;9.50;99.90;;;;;;5008030;28;20291;-73
2024/01/29 11:38:08;;;;;;;3.33;2.20;;;9.50;99.90;;;;;;5008902;28;20239;-73
2024/01/29 11:40:38;;;;;;;2.33;2.13;;;9.50;99.90;;;;;;5008871;28;20216;-73
2024/01/29 11:43:10;;;;;;;2.00;1.80;;;9.50;99.90;;;;;;5008979;28;20205;-73
2024/01/29 11:45:37;;;;;;;1.80;1.70;;;9.40;99.90;;;;;;5008582;28;20285;-74
2024/01/29 11:48:09;;;;;;;2.00;1.90;;;9.30;99.90;;;;;;5009211;28;20312;-74
2024/01/29 11:50:36;;;;;;;3.20;2.20;;;9.30;99.90;;;;;;5008996;28;20198;-74
2024/01/29 11:53:04;;;;;;;2.50;2.30;;;9.30;99.90;;;;;;5008495;28;20291;-74
2024/01/29 11:55:32;;;;;;;2.37;2.17;;;9.20;99.90;;;;;;5008871;28;20324;-74
2024/01/29 11:57:59;;;;;;;3.10;2.30;;;9.20;99.90;;;;;;5009041;28;20248;-74
2024/01/29 12:00:26;;;;;;;2.73;2.47;;;9.10;99.90;;;;;;4994244;28;20245;-74
2024/01/29 12:02:53;;;;;;;2.97;2.17;;;9.00;99.90;;;;;;4989210;28;20724;-74
2024/01/29 12:05:21;;;;;;;2.13;1.90;;;9.00;99.90;;;;;;4989072;28;20206;-73
2024/01/29 12:07:49;;;;;;;2.57;2.03;;;9.00;99.90;;;;;;4988846;28;20293;-73
2024/01/29 12:10:17;;;;;;;2.40;1.77;;;8.90;99.90;;;;;;4988973;28;20306;-74
2024/01/29 12:12:44;;;;;;;2.73;2.20;;;8.90;99.90;;;;;;4989214;28;20264;-74
2024/01/29 12:15:12;;;;;;;3.80;2.10;;;8.90;99.90;;;;;;5004411;28;20799;-74
2024/01/29 12:17:41;;;;;;;5.00;2.50;;;8.80;99.90;;;;;;5008507;28;20288;-74
2024/01/29 12:20:11;;;;;;;3.40;2.47;;;8.80;99.90;;;;;;5008297;28;20259;-73
2024/01/29 12:22:40;;;;;;;2.40;2.20;;;8.80;99.90;;;;;;5007853;28;20583;-73
2024/01/29 12:25:11;;;;;;;2.30;2.10;;;8.80;99.90;;;;;;5008138;28;20680;-73
2024/01/29 12:27:38;;;;;;;3.40;2.80;;;8.80;99.90;;;;;;5008541;28;20248;-73
2024/01/29 12:30:10;;;;;;;5.27;4.77;;;8.90;99.90;;;;;;5008062;28;20325;-74
2024/01/29 12:32:39;;;;;;;8.10;6.53;;;8.90;99.90;;;;;;5008406;28;20297;-74
2024/01/29 12:35:23;;;;;;;3.03;2.67;;;9.00;99.90;;;;;;5008149;28;20703;-74
2024/01/29 12:37:51;;;;;;;2.37;2.17;;;9.00;99.90;;;;;;5008213;28;20251;-74
2024/01/29 12:40:19;;;;;;;2.40;2.20;;;9.10;99.90;;;;;;5008110;28;20201;-74
2024/01/29 12:42:45;;;;;;;2.10;1.93;;;9.10;99.90;;;;;;5008338;28;20240;-73
2024/01/29 12:45:17;;;;;;;2.33;2.00;;;9.20;99.90;;;;;;5007939;28;20206;-74
2024/01/29 12:47:44;;;;;;;3.63;2.40;;;9.30;99.90;;;;;;5008217;28;20224;-73
2024/01/29 12:50:15;;;;;;;2.30;2.10;;;9.40;99.90;;;;;;5007945;28;20213;-74
2024/01/29 12:52:42;;;;;;;2.40;2.17;;;9.50;99.90;;;;;;5007309;28;20811;-75
2024/01/29 12:55:11;;;;;;;2.83;2.23;;;9.50;99.90;;;;;;5007689;28;20324;-74
2024/01/29 12:57:38;;;;;;;2.30;2.10;;;9.60;99.90;;;;;;5007771;28;20229;-74
2024/01/29 13:00:07;;;;;;;3.20;2.07;;;9.60;99.90;;;;;;5007752;28;20206;-74